Latest Weather Observations for Portland Airport

IDV60801

Issued at 10:02 am EST Thursday 28 May 2015 (issued every 30 minutes, with the page automatically refreshed every 10 minutes)

About weather observations | Map of weather stations | Latest weather observations for VIC | Other Formats
Station Details ID: 090171 Name: CASHMORE AIRPORT Lat: -38.31 Lon: 141.47 Height: 80.9 m
Data from the previous 72 hours. | See also: Recent months at Portland Airport
Date/Time
EST
Temp
°C
App
Temp
°C
Dew
Point
Rel
Hum
%
Delta-T
°C
Wind Press
QNH
hPa
Press
MSL
hPa
Rain
since 9 am
mm
Dir
 
Spd
km/h
Gust
km/h
Spd
kts
Gust
kts
28/10:00am 14.5 9.5 11.1 80 1.8 NNW 28 46 15 25 1013.6 1013.6 0.0
28/09:58am 14.5 9.5 11.1 80 1.8 NNW 28 46 15 25 1013.6 1013.6 0.0
28/09:30am 14.0 9.0 10.8 81 1.7 NNW 28 43 15 23 1013.7 1013.7 0.0
28/09:00am 13.3 8.5 10.3 82 1.6 NNW 26 41 14 22 1013.7 1013.7 3.4
28/08:30am 12.5 8.2 10.6 88 1.0 NNW 24 35 13 19 1013.7 1013.7 3.4
28/08:00am 12.3 8.7 10.4 88 1.0 NNW 20 30 11 16 1013.7 1013.7 3.4
28/07:30am 12.7 9.2 10.8 88 1.0 NNW 20 32 11 17 1013.8 1013.8 3.4
28/07:00am 13.1 8.7 10.5 84 1.4 NNW 24 32 13 17 1013.9 1013.9 3.4
28/06:30am 12.9 8.4 10.1 83 1.4 NNW 24 39 13 21 1013.8 1013.8 3.4
28/06:00am 12.6 7.8 10.3 86 1.2 NNW 26 39 14 21 1013.6 1013.6 3.4
28/05:30am 12.7 8.9 11.1 90 0.8 NNW 22 35 12 19 1013.7 1013.7 3.4
28/05:00am 13.1 9.5 11.7 91 0.7 NNW 22 32 12 17 1013.9 1013.9 3.4
28/04:30am 13.1 10.1 11.8 92 0.7 NNW 19 30 10 16 1014.0 1014.0 3.4
28/04:00am 13.1 9.2 12.0 93 0.6 NNW 24 39 13 21 1014.2 1014.2 3.4
28/03:30am 12.6 9.8 11.5 93 0.6 NNW 17 22 9 12 1014.5 1014.5 3.2
28/03:00am 12.5 9.6 11.1 91 0.7 NNW 17 20 9 11 1014.5 1014.5 3.2
28/02:30am 12.7 9.3 11.3 91 0.7 NNW 20 26 11 14 1014.6 1014.6 3.2
28/02:00am 13.1 9.8 11.7 91 0.7 NNW 20 35 11 19 1014.8 1014.8 3.2
28/01:30am 13.3 10.1 12.0 92 0.7 NNW 20 30 11 16 1014.9 1014.9 3.2
28/01:00am 13.4 10.3 12.3 93 0.6 NNW 20 30 11 16 1015.2 1015.2 3.2
28/12:55am 13.5 10.5 12.4 93 0.6 NNW 20 30 11 16 1015.3 1015.3 3.2
28/12:45am 13.4 10.5 12.3 93 0.6 NW 19 28 10 15 1015.4 1015.4 3.2
28/12:30am 13.1 9.5 11.7 91 0.7 WNW 22 30 12 16 1015.7 1015.7 3.2
28/12:28am 13.1 9.1 11.7 91 0.7 WNW 24 33 13 18 1015.8 1015.8 3.2
28/12:25am 13.1 8.3 11.5 90 0.9 WNW 28 39 15 21 1015.8 1015.8 3.0
28/12:15am 13.0 7.8 11.6 91 0.7 NW 30 41 16 22 1015.9 1015.9 2.8
28/12:11am 13.7 9.5 12.4 92 0.7 NW 26 39 14 21 1016.0 1016.0 2.4
28/12:00am 13.9 10.4 12.3 90 0.9 NNW 22 35 12 19 1015.8 1015.8 1.4
 
Date/Time
EST
Temp
°C
App
Temp
°C
Dew
Point
Rel
Hum
%
Delta-T
°C
Wind Press
QNH
hPa
Press
MSL
hPa
Rain
since 9 am
mm
Dir
 
Spd
km/h
Gust
km/h
Spd
kts
Gust
kts
27/11:30pm 13.8 10.7 12.2 90 0.9 NNW 20 33 11 18 1015.8 1015.8 1.4
27/11:00pm 13.6 10.4 12.0 90 0.9 NNW 20 30 11 16 1015.8 1015.8 1.4
27/10:30pm 13.7 10.6 12.1 90 0.9 NNW 20 28 11 15 1015.8 1015.8 1.4
27/10:00pm 13.5 10.5 12.1 91 0.8 NNW 19 28 10 15 1016.1 1016.1 1.4
27/09:30pm 13.3 10.7 11.9 91 0.8 NNW 17 24 9 13 1016.2 1016.2 1.4
27/09:00pm 13.6 11.1 12.2 91 0.8 NNW 17 24 9 13 1016.2 1016.2 1.4
27/08:30pm 14.0 11.1 12.2 89 1.0 NNW 19 30 10 16 1016.2 1016.2 1.4
27/08:00pm 14.1 11.0 12.1 88 1.1 NNW 20 28 11 15 1016.3 1016.3 1.4
27/07:30pm 14.1 10.5 12.0 87 1.1 NW 22 30 12 16 1016.0 1016.0 1.4
27/07:00pm 14.5 10.6 12.2 86 1.3 NW 24 39 13 21 1015.9 1015.9 1.4
27/06:30pm 14.5 12.1 12.7 89 1.0 NNW 17 26 9 14 1015.9 1015.9 1.4
27/06:00pm 14.5 11.5 12.4 87 1.1 NW 20 26 11 14 1015.8 1015.8 1.4
27/05:30pm 14.7 12.4 12.9 89 1.0 NNW 17 24 9 13 1015.7 1015.7 1.4
27/05:00pm 15.1 12.8 13.0 87 1.2 NNW 17 26 9 14 1015.6 1015.6 1.4
27/04:30pm 15.3 13.6 13.5 89 1.0 NW 15 24 8 13 1015.5 1015.5 1.4
27/04:00pm 14.9 12.1 13.3 90 0.9 NW 20 28 11 15 1015.7 1015.7 1.4
27/03:30pm 15.0 11.7 12.9 87 1.2 NW 22 32 12 17 1015.6 1015.6 1.4
27/03:06pm 14.9 12.3 13.3 90 0.9 NW 19 28 10 15 1015.6 1015.6 1.4
27/03:00pm 14.7 12.1 13.1 90 0.9 WNW 19 28 10 15 1015.6 1015.6 1.2
27/02:48pm 15.0 11.6 12.5 85 1.4 NNW 22 35 12 19 1015.4 1015.4 0.8
27/02:30pm 15.9 12.4 12.3 79 2.0 NNW 22 35 12 19 1015.2 1015.2 0.0
27/02:00pm 17.9 15.0 13.0 73 2.8 NNW 20 30 11 16 1015.4 1015.4 0.0
27/01:30pm 17.2 14.2 12.5 74 2.6 NNW 20 32 11 17 1015.9 1015.9 0.0
27/01:00pm 17.3 13.4 12.0 71 2.9 NNW 24 33 13 18 1016.2 1016.2 0.0
27/12:30pm 17.0 13.0 11.9 72 2.8 NW 24 37 13 20 1016.5 1016.5 0.0
27/12:00pm 16.7 13.5 12.0 74 2.6 NNW 20 32 11 17 1017.0 1017.0 0.0
27/11:30am 16.7 13.2 12.3 75 2.4 NW 22 33 12 18 1017.5 1017.5 0.0
27/11:00am 16.4 13.4 12.4 77 2.2 NW 20 28 11 15 1017.7 1017.7 0.0
27/10:30am 15.3 11.9 11.3 77 2.1 NW 20 28 11 15 1017.7 1017.7 0.0
27/10:00am 14.8 11.3 11.0 78 2.0 NNW 20 30 11 16 1017.8 1017.8 0.0
27/09:30am 14.2 10.6 10.6 79 1.9 NNW 20 28 11 15 1017.9 1017.9 0.0
27/09:00am 13.5 9.8 10.1 80 1.8 NNW 20 28 11 15 1017.8 1017.8 0.0
27/08:30am 11.7 8.7 9.4 86 1.2 NNW 15 19 8 10 1017.6 1017.6 0.0
27/08:00am 10.7 7.6 8.8 88 0.9 NNW 15 17 8 9 1017.2 1017.2 0.0
27/07:30am 10.8 7.7 8.7 87 1.0 NNW 15 19 8 10 1017.3 1017.3 0.0
27/07:00am 10.9 7.8 8.7 86 1.1 N 15 20 8 11 1017.1 1017.1 0.0
27/06:30am 11.2 8.5 8.8 85 1.2 N 13 19 7 10 1016.8 1016.8 0.0
27/06:00am 11.7 8.2 8.9 83 1.4 N 17 22 9 12 1017.0 1017.0 0.0
27/05:30am 11.1 8.0 8.7 85 1.2 N 15 20 8 11 1017.1 1017.1 0.0
27/05:00am 10.6 7.4 8.4 86 1.1 N 15 20 8 11 1017.2 1017.2 0.0
27/04:30am 10.5 7.3 8.6 88 0.9 N 15 19 8 10 1017.3 1017.3 0.0
27/04:00am 11.0 7.9 8.9 87 1.0 N 15 20 8 11 1017.5 1017.5 0.0
27/03:30am 11.8 8.8 9.2 84 1.3 N 15 22 8 12 1017.8 1017.8 0.0
27/03:00am 12.4 9.1 9.4 82 1.5 N 17 26 9 14 1018.0 1018.0 0.0
27/02:30am 12.3 9.0 9.7 84 1.3 N 17 22 9 12 1018.5 1018.5 0.0
27/02:00am 12.8 9.6 9.8 82 1.5 N 17 24 9 13 1018.8 1018.8 0.0
27/01:30am 12.3 8.9 9.3 82 1.5 N 17 24 9 13 1019.0 1019.0 0.0
27/01:00am 12.0 9.0 9.2 83 1.4 N 15 22 8 12 1019.3 1019.3 0.0
27/12:30am 11.9 9.3 9.3 84 1.3 N 13 17 7 9 1019.6 1019.6 0.0
27/12:00am 12.0 9.4 9.2 83 1.4 N 13 20 7 11 1019.8 1019.8 0.0
 
Date/Time
EST
Temp
°C
App
Temp
°C
Dew
Point
Rel
Hum
%
Delta-T
°C
Wind Press
QNH
hPa
Press
MSL
hPa
Rain
since 9 am
mm
Dir
 
Spd
km/h
Gust
km/h
Spd
kts
Gust
kts
26/11:30pm 12.0 9.4 9.4 84 1.3 N 13 19 7 10 1020.1 1020.1 0.0
26/11:00pm 11.7 9.5 9.3 85 1.2 N 11 15 6 8 1020.5 1020.6 0.0
26/10:30pm 11.5 9.6 9.2 86 1.2 N 9 13 5 7 1020.6 1020.7 0.0
26/10:00pm 11.4 9.5 9.1 86 1.1 N 9 11 5 6 1020.9 1021.0 0.0
26/09:30pm 11.6 9.8 9.3 86 1.2 N 9 11 5 6 1021.1 1021.2 0.0
26/09:00pm 12.0 10.1 9.2 83 1.4 N 9 13 5 7 1021.2 1021.3 0.0
26/08:30pm 12.1 10.2 9.1 82 1.5 NNE 9 13 5 7 1021.3 1021.4 0.0
26/08:00pm 12.1 10.1 8.8 80 1.6 NE 9 13 5 7 1021.5 1021.6 0.0
26/07:30pm 11.5 9.6 9.2 86 1.2 NE 9 13 5 7 1021.8 1021.9 0.0
26/07:00pm 11.3 9.4 9.2 87 1.0 NE 9 11 5 6 1022.1 1022.2 0.0
26/06:30pm 11.7 10.3 9.6 87 1.1 NE 7 11 4 6 1022.1 1022.2 0.0
26/06:00pm 11.8 10.1 9.9 88 1.0 ENE 9 15 5 8 1022.2 1022.3 0.0
26/05:30pm 11.5 10.0 9.1 85 1.2 E 7 9 4 5 1022.3 1022.4 0.0
26/05:00pm 12.4 11.0 9.6 83 1.4 E 7 9 4 5 1022.5 1022.6 0.0
26/04:30pm 13.3 11.6 9.7 79 1.9 E 9 13 5 7 1022.5 1022.6 0.0
26/04:00pm 13.5 11.7 9.6 77 2.0 E 9 13 5 7 1022.7 1022.8 0.0
26/03:30pm 15.1 13.5 10.1 72 2.6 E 9 13 5 7 1023.0 1023.1 0.0
26/03:00pm 16.4 14.5 9.1 62 3.8 NE 9 13 5 7 1023.0 1023.1 0.0
26/02:30pm 15.7 13.6 8.4 62 3.7 NNE 9 13 5 7 1023.5 1023.6 0.0
26/02:00pm 16.0 13.8 8.0 59 4.0 NNE 9 15 5 8 1024.0 1024.1 0.0
26/01:30pm 15.9 13.3 7.7 58 4.1 NNE 11 15 6 8 1024.3 1024.4 0.0
26/01:00pm 15.4 12.2 6.9 57 4.2 NNE 13 19 7 10 1024.8 1024.9 0.0
26/12:30pm 14.4 12.0 7.0 61 3.6 NNE 9 15 5 8 1025.6 1025.6 0.0
26/12:00pm 14.1 12.1 8.7 70 2.7 N 9 13 5 7 1026.2 1026.2 0.0
26/11:30am 12.7 10.2 8.0 73 2.3 N 11 15 6 8 1026.9 1026.9 0.0
26/11:00am 11.8 9.2 7.9 77 1.9 N 11 17 6 9 1027.5 1027.5 0.0
26/10:30am 10.6 7.8 7.1 79 1.7 N 11 17 6 9 1027.6 1027.6 0.0
26/10:00am 10.3 7.2 7.4 82 1.4 N 13 15 7 8 1027.9 1027.9 0.0
26/09:30am 8.4 5.4 6.0 85 1.1 N 11 15 6 8 1027.9 1027.9 0.0
26/09:00am 7.6 4.2 5.7 88 0.8 N 13 17 7 9 1027.9 1027.9 0.0
26/08:30am 6.8 3.6 5.0 88 0.8 N 11 13 6 7 1028.0 1028.0 0.0
26/08:00am 6.8 3.2 5.0 88 0.8 N 13 15 7 8 1028.0 1028.0 0.0
26/07:30am 7.0 3.4 5.2 88 0.8 N 13 17 7 9 1027.9 1027.9 0.0
26/07:00am 7.3 4.2 5.4 88 0.8 N 11 15 6 8 1027.8 1027.8 0.0
26/06:30am 7.1 3.6 5.4 89 0.8 N 13 17 7 9 1027.6 1027.6 0.0
26/06:00am 6.5 3.3 5.1 91 0.6 N 11 13 6 7 1027.5 1027.5 0.0
26/05:30am 6.4 2.5 5.2 92 0.5 N 15 17 8 9 1027.5 1027.5 0.0
26/05:00am 5.9 2.3 4.9 93 0.4 N 13 15 7 8 1027.6 1027.6 0.0
26/04:30am 6.2 2.6 5.2 93 0.4 N 13 17 7 9 1027.6 1027.6 0.0
26/04:00am 6.3 3.6 5.4 94 0.4 N 9 13 5 7 1027.7 1027.7 0.0
26/03:30am 6.9 3.9 6.2 95 0.3 N 11 13 6 7 1028.0 1028.0 0.0
26/03:00am 6.3 3.6 5.7 96 0.3 NNW 9 9 5 5 1028.2 1028.2 0.0
26/02:30am 5.2 2.6 4.2 93 0.4 NNW 7 9 4 5 1028.4 1028.4 0.0
26/02:00am 6.6 4.2 5.4 92 0.5 NNW 7 11 4 6 1028.6 1028.6 0.0
26/01:30am 6.9 4.2 5.7 92 0.5 NNW 9 11 5 6 1028.7 1028.7 0.0
26/01:00am 8.0 5.2 6.8 92 0.6 N 11 15 6 8 1028.5 1028.5 0.0
26/12:30am 8.1 5.7 7.2 94 0.4 N 9 13 5 7 1028.8 1028.8 0.0
26/12:00am 8.7 5.8 8.3 97 0.2 NNW 13 15 7 8 1029.0 1029.0 0.0
 
Date/Time
EST
Temp
°C
App
Temp
°C
Dew
Point
Rel
Hum
%
Delta-T
°C
Wind Press
QNH
hPa
Press
MSL
hPa
Rain
since 9 am
mm
Dir
 
Spd
km/h
Gust
km/h
Spd
kts
Gust
kts
25/11:30pm 7.9 5.6 7.5 97 0.2 NNW 9 11 5 6 1029.0 1029.0 0.0
25/11:20pm 7.5 5.5 7.1 97 0.2 NNW 7 9 4 5 1028.8 1028.8 0.0
25/11:00pm 5.3 4.1 4.6 95 0.3 CALM 0 0 0 0 1028.8 1028.8 0.0
25/10:56pm 5.2 4.0 4.5 95 0.3 CALM 0 6 0 3 1028.8 1028.8 0.0
25/10:47pm 6.3 4.0 5.6 95 0.3 NNW 7 9 4 5 1028.8 1028.8 0.0
25/10:30pm 5.7 3.2 5.0 95 0.3 NNW 7 11 4 6 1029.0 1029.0 0.0
25/10:08pm 6.4 4.1 5.5 94 0.4 NNW 7 9 4 5 1029.1 1029.1 0.0
25/10:00pm 6.5 4.2 5.6 94 0.4 NNW 7 9 4 5 1029.2 1029.2 0.0
25/09:30pm 7.2 5.0 6.3 94 0.4 NNW 7 9 4 5 1029.4 1029.4 0.0
25/09:00pm 7.2 5.0 6.1 93 0.5 WSW 7 7 4 4 1029.4 1029.4 0.0
25/08:30pm 7.1 6.2 5.9 92 0.5 CALM 0 0 0 0 1029.3 1029.3 0.0
25/08:00pm 8.2 6.3 6.8 91 0.6 WSW 6 7 3 4 1029.1 1029.1 0.0
25/07:30pm 7.5 6.5 5.8 89 0.8 CALM 0 0 0 0 1029.1 1029.1 0.0
25/07:00pm 8.5 7.7 6.6 88 0.9 CALM 0 0 0 0 1029.0 1029.0 0.0
25/06:30pm 9.3 8.6 6.9 85 1.1 CALM 0 0 0 0 1028.8 1028.8 0.0
25/06:00pm 10.8 10.1 6.9 77 1.8 CALM 0 0 0 0 1028.5 1028.5 0.0
25/05:30pm 12.9 12.4 8.0 72 2.4 CALM 0 0 0 0 1028.4 1028.4 0.0
25/05:00pm 14.3 12.8 8.3 67 3.0 W 6 9 3 5 1028.1 1028.1 0.0
25/04:30pm 16.1 14.5 8.8 62 3.8 W 7 9 4 5 1028.0 1028.0 0.0
25/04:00pm 16.7 15.0 8.4 58 4.2 W 7 9 4 5 1027.9 1027.9 0.0
25/03:30pm 17.4 15.8 8.8 57 4.5 W 7 9 4 5 1027.8 1027.8 0.0
25/03:00pm 17.4 15.7 8.3 55 4.6 NW 7 13 4 7 1027.8 1027.8 0.0
25/02:30pm 17.3 14.9 7.1 51 5.1 NNW 9 13 5 7 1027.9 1027.9 0.0
25/02:00pm 17.0 14.2 7.1 52 4.9 NNW 11 15 6 8 1028.1 1028.1 0.0
25/01:30pm 17.1 14.4 7.5 53 4.8 N 11 15 6 8 1028.2 1028.2 0.0
25/01:00pm 16.7 13.9 6.8 52 4.9 NNW 11 13 6 7 1028.5 1028.5 0.0
25/12:30pm 16.5 14.0 8.2 58 4.2 NNW 11 17 6 9 1028.9 1028.9 0.0
25/12:00pm 16.0 12.6 7.7 58 4.1 NNW 15 20 8 11 1029.4 1029.4 0.0
25/11:30am 15.5 12.5 7.8 60 3.9 NW 13 19 7 10 1029.8 1029.8 0.0
25/11:00am 14.9 11.4 7.2 60 3.8 NW 15 20 8 11 1030.2 1030.2 0.0
25/10:30am 14.5 11.7 8.5 67 3.0 NW 13 19 7 10 1030.3 1030.3 0.0

Other Formats:

Comma delimited format used in spreadsheet applications
http://www.bom.gov.au/fwo/IDV60801/IDV60801.94828.axf

JavaScript Object Notation format (JSON) in row-major order
http://www.bom.gov.au/fwo/IDV60801/IDV60801.94828.json